sensor_id;sensor_type;location;lat;lon;timestamp;temperature;humidity
15707;DHT22;7953;54.302;10.128;2022-09-24T00:02:26;10.80;99.90
15707;DHT22;7953;54.302;10.128;2022-09-24T00:04:52;10.80;99.90
15707;DHT22;7953;54.302;10.128;2022-09-24T00:07:21;10.80;99.90
15707;DHT22;7953;54.302;10.128;2022-09-24T00:09:47;10.90;99.90
15707;DHT22;7953;54.302;10.128;2022-09-24T00:12:14;10.90;99.90
15707;DHT22;7953;54.302;10.128;2022-09-24T00:14:43;10.80;99.90
15707;DHT22;7953;54.302;10.128;2022-09-24T00:17:10;10.80;99.90
15707;DHT22;7953;54.302;10.128;2022-09-24T00:19:37;10.80;99.90
15707;DHT22;7953;54.302;10.128;2022-09-24T00:22:04;10.80;99.90
15707;DHT22;7953;54.302;10.128;2022-09-24T00:24:32;10.80;99.90
15707;DHT22;7953;54.302;10.128;2022-09-24T00:27:16;10.80;99.90
15707;DHT22;7953;54.302;10.128;2022-09-24T00:29:43;10.80;99.90
15707;DHT22;7953;54.302;10.128;2022-09-24T00:32:10;10.80;99.90
15707;DHT22;7953;54.302;10.128;2022-09-24T00:34:37;10.80;99.90
15707;DHT22;7953;54.302;10.128;2022-09-24T00:37:04;10.70;99.90
15707;DHT22;7953;54.302;10.128;2022-09-24T00:39:33;10.70;99.90
15707;DHT22;7953;54.302;10.128;2022-09-24T00:41:59;10.70;99.90
15707;DHT22;7953;54.302;10.128;2022-09-24T00:44:54;10.70;99.90
15707;DHT22;7953;54.302;10.128;2022-09-24T00:47:28;10.80;99.90
15707;DHT22;7953;54.302;10.128;2022-09-24T00:50:04;10.80;99.90
15707;DHT22;7953;54.302;10.128;2022-09-24T00:52:33;10.80;99.90
15707;DHT22;7953;54.302;10.128;2022-09-24T00:55:02;10.80;99.90
15707;DHT22;7953;54.302;10.128;2022-09-24T00:57:30;10.80;99.90
15707;DHT22;7953;54.302;10.128;2022-09-24T00:59:57;10.80;99.90
15707;DHT22;7953;54.302;10.128;2022-09-24T01:02:24;10.90;99.90
15707;DHT22;7953;54.302;10.128;2022-09-24T01:04:51;10.90;99.90
15707;DHT22;7953;54.302;10.128;2022-09-24T01:07:19;10.90;99.90
15707;DHT22;7953;54.302;10.128;2022-09-24T01:09:46;10.90;99.90
15707;DHT22;7953;54.302;10.128;2022-09-24T01:12:21;10.80;99.90
15707;DHT22;7953;54.302;10.128;2022-09-24T01:14:59;10.90;99.90
15707;DHT22;7953;54.302;10.128;2022-09-24T01:17:34;10.90;99.90
15707;DHT22;7953;54.302;10.128;2022-09-24T01:26:44;10.90;99.90
15707;DHT22;7953;54.302;10.128;2022-09-24T01:29:35;11.00;99.90
15707;DHT22;7953;54.302;10.128;2022-09-24T01:32:09;10.90;99.90
15707;DHT22;7953;54.302;10.128;2022-09-24T01:34:41;10.90;99.90
15707;DHT22;7953;54.302;10.128;2022-09-24T01:37:11;11.00;99.90
15707;DHT22;7953;54.302;10.128;2022-09-24T01:39:40;11.00;99.90
15707;DHT22;7953;54.302;10.128;2022-09-24T01:42:09;11.00;99.90
15707;DHT22;7953;54.302;10.128;2022-09-24T01:44:38;11.00;99.90
15707;DHT22;7953;54.302;10.128;2022-09-24T01:47:09;11.10;99.90
15707;DHT22;7953;54.302;10.128;2022-09-24T01:49:39;11.20;99.90
15707;DHT22;7953;54.302;10.128;2022-09-24T01:52:08;11.20;99.90
15707;DHT22;7953;54.302;10.128;2022-09-24T01:54:39;11.20;99.90
15707;DHT22;7953;54.302;10.128;2022-09-24T01:57:12;11.20;99.90
15707;DHT22;7953;54.302;10.128;2022-09-24T01:59:44;11.20;99.90
15707;DHT22;7953;54.302;10.128;2022-09-24T02:02:17;11.10;99.90
15707;DHT22;7953;54.302;10.128;2022-09-24T02:05:06;11.10;99.90
15707;DHT22;7953;54.302;10.128;2022-09-24T02:07:41;11.10;99.90
15707;DHT22;7953;54.302;10.128;2022-09-24T02:10:14;11.10;99.90
15707;DHT22;7953;54.302;10.128;2022-09-24T02:12:45;11.20;99.90
15707;DHT22;7953;54.302;10.128;2022-09-24T02:15:15;11.20;99.90
15707;DHT22;7953;54.302;10.128;2022-09-24T02:17:47;11.20;99.90
15707;DHT22;7953;54.302;10.128;2022-09-24T02:20:17;11.20;99.90
15707;DHT22;7953;54.302;10.128;2022-09-24T02:22:46;11.20;99.90
15707;DHT22;7953;54.302;10.128;2022-09-24T02:25:18;11.20;99.90
15707;DHT22;7953;54.302;10.128;2022-09-24T02:27:46;11.20;99.90
15707;DHT22;7953;54.302;10.128;2022-09-24T02:30:14;11.20;99.90
15707;DHT22;7953;54.302;10.128;2022-09-24T02:32:42;11.20;99.90
15707;DHT22;7953;54.302;10.128;2022-09-24T02:35:11;11.20;99.90
15707;DHT22;7953;54.302;10.128;2022-09-24T02:37:39;11.20;99.90
15707;DHT22;7953;54.302;10.128;2022-09-24T02:40:08;11.30;99.90
15707;DHT22;7953;54.302;10.128;2022-09-24T02:42:36;11.30;99.90
15707;DHT22;7953;54.302;10.128;2022-09-24T02:45:06;11.30;99.90
15707;DHT22;7953;54.302;10.128;2022-09-24T02:47:34;11.30;99.90
15707;DHT22;7953;54.302;10.128;2022-09-24T02:50:01;11.40;99.90
15707;DHT22;7953;54.302;10.128;2022-09-24T02:52:28;11.40;99.90
15707;DHT22;7953;54.302;10.128;2022-09-24T02:54:55;11.40;99.90
15707;DHT22;7953;54.302;10.128;2022-09-24T02:57:22;11.40;99.90
15707;DHT22;7953;54.302;10.128;2022-09-24T02:59:48;11.40;99.90
15707;DHT22;7953;54.302;10.128;2022-09-24T03:02:15;11.40;99.90
15707;DHT22;7953;54.302;10.128;2022-09-24T03:04:44;11.40;99.90
15707;DHT22;7953;54.302;10.128;2022-09-24T03:07:11;11.40;99.90
15707;DHT22;7953;54.302;10.128;2022-09-24T03:09:39;11.30;99.90
15707;DHT22;7953;54.302;10.128;2022-09-24T03:12:06;11.30;99.90
15707;DHT22;7953;54.302;10.128;2022-09-24T03:14:33;11.30;99.90
15707;DHT22;7953;54.302;10.128;2022-09-24T03:17:00;11.30;99.90
15707;DHT22;7953;54.302;10.128;2022-09-24T03:19:27;11.30;99.90
15707;DHT22;7953;54.302;10.128;2022-09-24T03:21:55;11.30;99.90
15707;DHT22;7953;54.302;10.128;2022-09-24T03:24:22;11.30;99.90
15707;DHT22;7953;54.302;10.128;2022-09-24T03:26:49;11.30;99.90
15707;DHT22;7953;54.302;10.128;2022-09-24T03:29:16;11.30;99.90
15707;DHT22;7953;54.302;10.128;2022-09-24T03:32:03;11.30;99.90
15707;DHT22;7953;54.302;10.128;2022-09-24T03:34:28;11.30;99.90
15707;DHT22;7953;54.302;10.128;2022-09-24T03:36:57;11.30;99.90
15707;DHT22;7953;54.302;10.128;2022-09-24T03:39:24;11.30;99.90
15707;DHT22;7953;54.302;10.128;2022-09-24T03:41:50;11.20;99.90
15707;DHT22;7953;54.302;10.128;2022-09-24T03:44:17;11.20;99.90
15707;DHT22;7953;54.302;10.128;2022-09-24T03:46:44;11.20;99.90
15707;DHT22;7953;54.302;10.128;2022-09-24T03:49:11;11.20;99.90
15707;DHT22;7953;54.302;10.128;2022-09-24T03:51:38;11.20;99.90
15707;DHT22;7953;54.302;10.128;2022-09-24T03:54:06;11.20;99.90
15707;DHT22;7953;54.302;10.128;2022-09-24T03:56:33;11.20;99.90
15707;DHT22;7953;54.302;10.128;2022-09-24T03:59:00;11.20;99.90
15707;DHT22;7953;54.302;10.128;2022-09-24T04:01:27;11.10;99.90
15707;DHT22;7953;54.302;10.128;2022-09-24T04:03:57;11.10;99.90
15707;DHT22;7953;54.302;10.128;2022-09-24T04:06:26;11.20;99.90
15707;DHT22;7953;54.302;10.128;2022-09-24T04:08:53;11.10;99.90
15707;DHT22;7953;54.302;10.128;2022-09-24T04:11:22;11.10;99.90
15707;DHT22;7953;54.302;10.128;2022-09-24T04:13:48;11.00;99.90
15707;DHT22;7953;54.302;10.128;2022-09-24T04:16:15;11.00;99.90
15707;DHT22;7953;54.302;10.128;2022-09-24T04:18:42;11.00;99.90
15707;DHT22;7953;54.302;10.128;2022-09-24T04:21:13;11.00;99.90
15707;DHT22;7953;54.302;10.128;2022-09-24T04:23:40;11.00;99.90
15707;DHT22;7953;54.302;10.128;2022-09-24T04:26:06;11.00;99.90
15707;DHT22;7953;54.302;10.128;2022-09-24T04:28:35;11.00;99.90
15707;DHT22;7953;54.302;10.128;2022-09-24T04:31:02;11.00;99.90
15707;DHT22;7953;54.302;10.128;2022-09-24T04:33:29;11.00;99.90
15707;DHT22;7953;54.302;10.128;2022-09-24T04:35:55;11.00;99.90
15707;DHT22;7953;54.302;10.128;2022-09-24T04:38:22;10.90;99.90
15707;DHT22;7953;54.302;10.128;2022-09-24T04:40:49;11.00;99.90
15707;DHT22;7953;54.302;10.128;2022-09-24T04:43:16;11.00;99.90
15707;DHT22;7953;54.302;10.128;2022-09-24T04:45:45;11.00;99.90
15707;DHT22;7953;54.302;10.128;2022-09-24T04:48:11;10.90;99.90
15707;DHT22;7953;54.302;10.128;2022-09-24T04:50:38;11.00;99.90
15707;DHT22;7953;54.302;10.128;2022-09-24T04:53:05;11.00;99.90
15707;DHT22;7953;54.302;10.128;2022-09-24T04:55:32;11.00;99.90
15707;DHT22;7953;54.302;10.128;2022-09-24T04:57:59;11.00;99.90
15707;DHT22;7953;54.302;10.128;2022-09-24T05:00:26;11.00;99.90
15707;DHT22;7953;54.302;10.128;2022-09-24T05:02:59;11.00;99.90
15707;DHT22;7953;54.302;10.128;2022-09-24T05:05:28;10.90;99.90
15707;DHT22;7953;54.302;10.128;2022-09-24T05:07:56;11.00;99.90
15707;DHT22;7953;54.302;10.128;2022-09-24T05:10:23;11.00;99.90
15707;DHT22;7953;54.302;10.128;2022-09-24T05:12:50;11.00;99.90
15707;DHT22;7953;54.302;10.128;2022-09-24T05:15:17;11.00;99.90
15707;DHT22;7953;54.302;10.128;2022-09-24T05:17:47;11.00;99.90
15707;DHT22;7953;54.302;10.128;2022-09-24T05:20:16;11.00;99.90
15707;DHT22;7953;54.302;10.128;2022-09-24T05:22:43;11.00;99.90
15707;DHT22;7953;54.302;10.128;2022-09-24T05:25:11;11.00;99.90
15707;DHT22;7953;54.302;10.128;2022-09-24T05:27:43;11.00;99.90
15707;DHT22;7953;54.302;10.128;2022-09-24T05:30:10;11.00;99.90
15707;DHT22;7953;54.302;10.128;2022-09-24T05:32:37;11.00;99.90
15707;DHT22;7953;54.302;10.128;2022-09-24T05:35:05;10.90;99.90
15707;DHT22;7953;54.302;10.128;2022-09-24T05:37:34;10.90;99.90
15707;DHT22;7953;54.302;10.128;2022-09-24T05:40:01;10.90;99.90
15707;DHT22;7953;54.302;10.128;2022-09-24T05:42:49;10.90;99.90
15707;DHT22;7953;54.302;10.128;2022-09-24T05:45:16;10.90;99.90
15707;DHT22;7953;54.302;10.128;2022-09-24T05:47:43;10.90;99.90
15707;DHT22;7953;54.302;10.128;2022-09-24T05:50:10;10.90;99.90
15707;DHT22;7953;54.302;10.128;2022-09-24T05:52:40;10.90;99.90
15707;DHT22;7953;54.302;10.128;2022-09-24T05:55:09;10.90;99.90
15707;DHT22;7953;54.302;10.128;2022-09-24T05:57:36;10.90;99.90
15707;DHT22;7953;54.302;10.128;2022-09-24T06:00:04;11.00;99.90
15707;DHT22;7953;54.302;10.128;2022-09-24T06:02:34;11.00;99.90
15707;DHT22;7953;54.302;10.128;2022-09-24T06:05:01;11.00;99.90
15707;DHT22;7953;54.302;10.128;2022-09-24T06:07:28;11.10;99.90
15707;DHT22;7953;54.302;10.128;2022-09-24T06:09:57;11.10;99.90
15707;DHT22;7953;54.302;10.128;2022-09-24T06:12:25;11.10;99.90
15707;DHT22;7953;54.302;10.128;2022-09-24T06:14:52;11.10;99.90
15707;DHT22;7953;54.302;10.128;2022-09-24T06:17:19;11.10;99.90
15707;DHT22;7953;54.302;10.128;2022-09-24T06:19:46;11.10;99.90
15707;DHT22;7953;54.302;10.128;2022-09-24T06:22:13;11.20;99.90
15707;DHT22;7953;54.302;10.128;2022-09-24T06:24:40;11.30;99.90
15707;DHT22;7953;54.302;10.128;2022-09-24T06:27:08;11.40;99.90
15707;DHT22;7953;54.302;10.128;2022-09-24T06:29:35;11.40;99.90
15707;DHT22;7953;54.302;10.128;2022-09-24T06:32:02;11.60;99.90
15707;DHT22;7953;54.302;10.128;2022-09-24T06:34:29;11.70;99.90
15707;DHT22;7953;54.302;10.128;2022-09-24T06:36:56;11.70;99.90
15707;DHT22;7953;54.302;10.128;2022-09-24T06:39:23;11.70;99.90
15707;DHT22;7953;54.302;10.128;2022-09-24T06:41:51;11.70;99.90
15707;DHT22;7953;54.302;10.128;2022-09-24T06:44:19;11.70;99.90
15707;DHT22;7953;54.302;10.128;2022-09-24T06:46:46;11.70;99.90
15707;DHT22;7953;54.302;10.128;2022-09-24T06:49:13;11.70;99.90
15707;DHT22;7953;54.302;10.128;2022-09-24T06:51:40;11.70;99.90
15707;DHT22;7953;54.302;10.128;2022-09-24T06:54:07;11.80;99.90
15707;DHT22;7953;54.302;10.128;2022-09-24T06:56:34;11.80;99.90
15707;DHT22;7953;54.302;10.128;2022-09-24T06:59:00;11.80;99.90
15707;DHT22;7953;54.302;10.128;2022-09-24T07:01:29;11.90;99.90
15707;DHT22;7953;54.302;10.128;2022-09-24T07:03:55;12.00;99.90
15707;DHT22;7953;54.302;10.128;2022-09-24T07:06:22;12.00;99.90
15707;DHT22;7953;54.302;10.128;2022-09-24T07:08:50;12.10;99.90
15707;DHT22;7953;54.302;10.128;2022-09-24T07:11:17;12.20;99.90
15707;DHT22;7953;54.302;10.128;2022-09-24T07:13:43;12.30;99.90
15707;DHT22;7953;54.302;10.128;2022-09-24T07:16:10;12.40;99.90
15707;DHT22;7953;54.302;10.128;2022-09-24T07:18:39;12.50;99.90
15707;DHT22;7953;54.302;10.128;2022-09-24T07:21:05;12.60;99.90
15707;DHT22;7953;54.302;10.128;2022-09-24T07:23:32;12.60;99.90
15707;DHT22;7953;54.302;10.128;2022-09-24T07:25:59;12.70;99.90
15707;DHT22;7953;54.302;10.128;2022-09-24T07:28:26;12.70;99.90
15707;DHT22;7953;54.302;10.128;2022-09-24T07:30:57;12.80;99.90
15707;DHT22;7953;54.302;10.128;2022-09-24T07:33:24;12.80;99.90
15707;DHT22;7953;54.302;10.128;2022-09-24T07:35:52;12.90;99.90
15707;DHT22;7953;54.302;10.128;2022-09-24T07:38:19;13.00;99.90
15707;DHT22;7953;54.302;10.128;2022-09-24T07:40:46;13.00;99.90
15707;DHT22;7953;54.302;10.128;2022-09-24T07:43:13;13.10;99.90
15707;DHT22;7953;54.302;10.128;2022-09-24T07:45:41;13.10;99.90
15707;DHT22;7953;54.302;10.128;2022-09-24T07:48:09;13.20;99.90
15707;DHT22;7953;54.302;10.128;2022-09-24T07:50:38;13.20;99.90
15707;DHT22;7953;54.302;10.128;2022-09-24T07:53:09;13.30;99.90
15707;DHT22;7953;54.302;10.128;2022-09-24T07:55:36;13.30;99.90
15707;DHT22;7953;54.302;10.128;2022-09-24T07:58:05;13.40;99.90
15707;DHT22;7953;54.302;10.128;2022-09-24T08:00:32;13.40;99.90
15707;DHT22;7953;54.302;10.128;2022-09-24T08:03:00;13.50;99.90
15707;DHT22;7953;54.302;10.128;2022-09-24T08:05:28;13.50;99.90
15707;DHT22;7953;54.302;10.128;2022-09-24T08:07:56;13.60;99.90
15707;DHT22;7953;54.302;10.128;2022-09-24T08:10:25;13.60;99.90
15707;DHT22;7953;54.302;10.128;2022-09-24T08:12:53;13.70;99.90
15707;DHT22;7953;54.302;10.128;2022-09-24T08:15:21;13.70;99.90
15707;DHT22;7953;54.302;10.128;2022-09-24T08:17:48;13.80;99.90
15707;DHT22;7953;54.302;10.128;2022-09-24T08:20:15;13.80;99.90
15707;DHT22;7953;54.302;10.128;2022-09-24T08:22:42;13.90;99.90
15707;DHT22;7953;54.302;10.128;2022-09-24T08:25:09;13.90;99.90
15707;DHT22;7953;54.302;10.128;2022-09-24T08:27:37;14.00;99.90
15707;DHT22;7953;54.302;10.128;2022-09-24T08:30:05;14.00;99.90
15707;DHT22;7953;54.302;10.128;2022-09-24T08:32:32;14.10;99.90
15707;DHT22;7953;54.302;10.128;2022-09-24T08:34:59;14.20;99.90
15707;DHT22;7953;54.302;10.128;2022-09-24T08:37:26;14.20;99.90
15707;DHT22;7953;54.302;10.128;2022-09-24T08:39:53;14.30;99.90
15707;DHT22;7953;54.302;10.128;2022-09-24T08:42:29;14.40;99.90
15707;DHT22;7953;54.302;10.128;2022-09-24T08:45:03;14.60;99.90
15707;DHT22;7953;54.302;10.128;2022-09-24T08:47:52;14.70;99.90
15707;DHT22;7953;54.302;10.128;2022-09-24T08:50:22;14.80;99.90
15707;DHT22;7953;54.302;10.128;2022-09-24T08:53:00;15.00;99.90
15707;DHT22;7953;54.302;10.128;2022-09-24T08:55:33;15.00;99.90
15707;DHT22;7953;54.302;10.128;2022-09-24T08:58:25;15.10;99.90
15707;DHT22;7953;54.302;10.128;2022-09-24T09:01:00;15.10;99.90
15707;DHT22;7953;54.302;10.128;2022-09-24T09:03:34;15.10;99.90
15707;DHT22;7953;54.302;10.128;2022-09-24T09:06:05;15.20;99.90
15707;DHT22;7953;54.302;10.128;2022-09-24T09:08:40;15.30;99.90
15707;DHT22;7953;54.302;10.128;2022-09-24T09:11:12;15.30;99.90
15707;DHT22;7953;54.302;10.128;2022-09-24T09:13:43;15.40;99.90
15707;DHT22;7953;54.302;10.128;2022-09-24T09:16:21;15.40;99.90
15707;DHT22;7953;54.302;10.128;2022-09-24T09:18:50;15.50;99.90
15707;DHT22;7953;54.302;10.128;2022-09-24T09:21:26;15.50;99.90
15707;DHT22;7953;54.302;10.128;2022-09-24T09:23:55;15.60;99.90
15707;DHT22;7953;54.302;10.128;2022-09-24T09:26:24;15.50;99.90
15707;DHT22;7953;54.302;10.128;2022-09-24T09:28:55;15.60;99.90
15707;DHT22;7953;54.302;10.128;2022-09-24T09:31:33;15.60;99.90
15707;DHT22;7953;54.302;10.128;2022-09-24T09:34:13;15.50;99.90
15707;DHT22;7953;54.302;10.128;2022-09-24T09:36:52;15.50;99.90
15707;DHT22;7953;54.302;10.128;2022-09-24T09:39:30;15.60;99.90
15707;DHT22;7953;54.302;10.128;2022-09-24T09:42:07;15.60;99.90
15707;DHT22;7953;54.302;10.128;2022-09-24T09:44:43;15.60;99.90
15707;DHT22;7953;54.302;10.128;2022-09-24T09:47:21;15.70;99.90
15707;DHT22;7953;54.302;10.128;2022-09-24T09:49:52;15.60;99.90
15707;DHT22;7953;54.302;10.128;2022-09-24T09:52:27;15.60;99.90
15707;DHT22;7953;54.302;10.128;2022-09-24T09:54:54;15.60;99.90
15707;DHT22;7953;54.302;10.128;2022-09-24T09:57:23;15.60;99.90
15707;DHT22;7953;54.302;10.128;2022-09-24T10:00:23;15.70;99.90
15707;DHT22;7953;54.302;10.128;2022-09-24T10:03:03;15.70;99.90
15707;DHT22;7953;54.302;10.128;2022-09-24T10:05:32;15.70;99.90
15707;DHT22;7953;54.302;10.128;2022-09-24T10:07:59;15.80;99.90
15707;DHT22;7953;54.302;10.128;2022-09-24T10:10:28;15.90;99.90
15707;DHT22;7953;54.302;10.128;2022-09-24T10:13:06;16.00;99.90
15707;DHT22;7953;54.302;10.128;2022-09-24T10:15:38;16.00;99.90
15707;DHT22;7953;54.302;10.128;2022-09-24T10:18:12;16.10;99.90
15707;DHT22;7953;54.302;10.128;2022-09-24T10:20:45;16.20;99.90
15707;DHT22;7953;54.302;10.128;2022-09-24T10:23:18;16.20;99.90
15707;DHT22;7953;54.302;10.128;2022-09-24T10:25:49;16.20;99.90
15707;DHT22;7953;54.302;10.128;2022-09-24T10:28:28;16.20;99.90
15707;DHT22;7953;54.302;10.128;2022-09-24T10:31:16;16.20;99.90
15707;DHT22;7953;54.302;10.128;2022-09-24T10:33:49;16.20;99.90
15707;DHT22;7953;54.302;10.128;2022-09-24T10:36:21;16.20;99.90
15707;DHT22;7953;54.302;10.128;2022-09-24T10:39:01;16.20;99.90
15707;DHT22;7953;54.302;10.128;2022-09-24T10:41:35;16.20;99.90
15707;DHT22;7953;54.302;10.128;2022-09-24T10:44:04;16.20;99.90
15707;DHT22;7953;54.302;10.128;2022-09-24T10:49:50;16.10;99.90
15707;DHT22;7953;54.302;10.128;2022-09-24T10:52:31;16.10;99.90
15707;DHT22;7953;54.302;10.128;2022-09-24T10:55:05;16.10;99.90
15707;DHT22;7953;54.302;10.128;2022-09-24T10:57:44;16.10;99.90
15707;DHT22;7953;54.302;10.128;2022-09-24T11:00:18;16.20;99.90
15707;DHT22;7953;54.302;10.128;2022-09-24T11:03:16;16.30;99.90
15707;DHT22;7953;54.302;10.128;2022-09-24T11:06:06;16.40;99.90
15707;DHT22;7953;54.302;10.128;2022-09-24T11:08:50;16.70;99.90
15707;DHT22;7953;54.302;10.128;2022-09-24T11:11:29;16.80;99.90
15707;DHT22;7953;54.302;10.128;2022-09-24T11:14:13;16.70;99.90
15707;DHT22;7953;54.302;10.128;2022-09-24T11:17:15;16.70;99.90
15707;DHT22;7953;54.302;10.128;2022-09-24T11:20:01;16.70;99.90
15707;DHT22;7953;54.302;10.128;2022-09-24T11:22:44;16.70;99.90
15707;DHT22;7953;54.302;10.128;2022-09-24T11:25:27;16.70;99.90
15707;DHT22;7953;54.302;10.128;2022-09-24T11:28:22;16.60;99.90
15707;DHT22;7953;54.302;10.128;2022-09-24T11:31:04;16.60;99.90
15707;DHT22;7953;54.302;10.128;2022-09-24T11:33:51;16.70;99.90
15707;DHT22;7953;54.302;10.128;2022-09-24T11:36:40;16.60;99.90
15707;DHT22;7953;54.302;10.128;2022-09-24T11:39:27;16.50;99.90
15707;DHT22;7953;54.302;10.128;2022-09-24T11:42:03;16.40;99.90
15707;DHT22;7953;54.302;10.128;2022-09-24T11:44:52;16.40;99.90
15707;DHT22;7953;54.302;10.128;2022-09-24T11:47:40;16.30;99.90
15707;DHT22;7953;54.302;10.128;2022-09-24T11:50:20;16.30;99.90
15707;DHT22;7953;54.302;10.128;2022-09-24T11:52:54;16.40;99.90
15707;DHT22;7953;54.302;10.128;2022-09-24T11:55:29;16.40;99.90
15707;DHT22;7953;54.302;10.128;2022-09-24T11:58:08;16.50;99.90
15707;DHT22;7953;54.302;10.128;2022-09-24T12:00:43;16.50;99.90
15707;DHT22;7953;54.302;10.128;2022-09-24T12:03:22;16.60;99.90
15707;DHT22;7953;54.302;10.128;2022-09-24T12:05:57;16.60;99.90
15707;DHT22;7953;54.302;10.128;2022-09-24T12:08:38;16.70;99.90
15707;DHT22;7953;54.302;10.128;2022-09-24T12:11:14;16.70;99.90
15707;DHT22;7953;54.302;10.128;2022-09-24T12:13:48;16.60;99.90
15707;DHT22;7953;54.302;10.128;2022-09-24T12:16:28;16.60;99.90
15707;DHT22;7953;54.302;10.128;2022-09-24T12:19:02;16.50;99.90
15707;DHT22;7953;54.302;10.128;2022-09-24T12:21:50;16.50;99.90
15707;DHT22;7953;54.302;10.128;2022-09-24T12:24:26;16.50;99.90
15707;DHT22;7953;54.302;10.128;2022-09-24T12:27:03;16.50;99.90
15707;DHT22;7953;54.302;10.128;2022-09-24T12:29:42;16.50;99.90
15707;DHT22;7953;54.302;10.128;2022-09-24T12:32:34;16.40;99.90
15707;DHT22;7953;54.302;10.128;2022-09-24T12:35:33;16.30;99.90
15707;DHT22;7953;54.302;10.128;2022-09-24T12:38:20;16.30;99.90
15707;DHT22;7953;54.302;10.128;2022-09-24T12:41:18;16.20;99.90
15707;DHT22;7953;54.302;10.128;2022-09-24T12:43:52;16.20;99.90
15707;DHT22;7953;54.302;10.128;2022-09-24T12:46:27;16.10;99.90
15707;DHT22;7953;54.302;10.128;2022-09-24T12:48:56;16.10;99.90
15707;DHT22;7953;54.302;10.128;2022-09-24T12:51:33;16.10;99.90
15707;DHT22;7953;54.302;10.128;2022-09-24T12:54:07;16.10;99.90
15707;DHT22;7953;54.302;10.128;2022-09-24T12:56:41;16.10;99.90
15707;DHT22;7953;54.302;10.128;2022-09-24T12:59:23;16.10;99.90
15707;DHT22;7953;54.302;10.128;2022-09-24T13:01:50;16.00;99.90
15707;DHT22;7953;54.302;10.128;2022-09-24T13:04:27;15.90;99.90
15707;DHT22;7953;54.302;10.128;2022-09-24T13:06:54;15.90;99.90
15707;DHT22;7953;54.302;10.128;2022-09-24T13:09:35;15.90;99.90
15707;DHT22;7953;54.302;10.128;2022-09-24T13:12:20;15.90;99.90
15707;DHT22;7953;54.302;10.128;2022-09-24T13:14:55;15.80;99.90
15707;DHT22;7953;54.302;10.128;2022-09-24T13:17:27;15.80;99.90
15707;DHT22;7953;54.302;10.128;2022-09-24T13:20:02;15.90;99.90
15707;DHT22;7953;54.302;10.128;2022-09-24T13:22:32;15.90;99.90
15707;DHT22;7953;54.302;10.128;2022-09-24T13:25:21;15.80;99.90
15707;DHT22;7953;54.302;10.128;2022-09-24T13:27:59;15.80;99.90
15707;DHT22;7953;54.302;10.128;2022-09-24T13:30:44;15.70;99.90
15707;DHT22;7953;54.302;10.128;2022-09-24T13:33:19;15.70;99.90
15707;DHT22;7953;54.302;10.128;2022-09-24T13:36:00;15.70;99.90
15707;DHT22;7953;54.302;10.128;2022-09-24T13:38:33;15.60;99.90
15707;DHT22;7953;54.302;10.128;2022-09-24T13:41:15;15.60;99.90
15707;DHT22;7953;54.302;10.128;2022-09-24T13:43:49;15.60;99.90
15707;DHT22;7953;54.302;10.128;2022-09-24T13:46:19;15.60;99.90
15707;DHT22;7953;54.302;10.128;2022-09-24T13:48:49;15.60;99.90
15707;DHT22;7953;54.302;10.128;2022-09-24T13:51:22;15.70;99.90
15707;DHT22;7953;54.302;10.128;2022-09-24T13:53:54;15.60;99.90
15707;DHT22;7953;54.302;10.128;2022-09-24T13:56:24;15.50;99.90
15707;DHT22;7953;54.302;10.128;2022-09-24T13:59:02;15.50;99.90
15707;DHT22;7953;54.302;10.128;2022-09-24T14:01:36;15.30;99.90
15707;DHT22;7953;54.302;10.128;2022-09-24T14:04:13;15.30;99.90
15707;DHT22;7953;54.302;10.128;2022-09-24T14:06:43;15.30;99.90
15707;DHT22;7953;54.302;10.128;2022-09-24T14:09:23;15.40;99.90
15707;DHT22;7953;54.302;10.128;2022-09-24T14:11:52;15.40;99.90
15707;DHT22;7953;54.302;10.128;2022-09-24T14:14:21;15.30;99.90
15707;DHT22;7953;54.302;10.128;2022-09-24T14:16:50;15.20;99.90
15707;DHT22;7953;54.302;10.128;2022-09-24T14:19:20;15.20;99.90
15707;DHT22;7953;54.302;10.128;2022-09-24T14:21:49;15.10;99.90
15707;DHT22;7953;54.302;10.128;2022-09-24T14:24:27;15.10;99.90
15707;DHT22;7953;54.302;10.128;2022-09-24T14:27:03;15.10;99.90
15707;DHT22;7953;54.302;10.128;2022-09-24T14:29:43;15.10;99.90
15707;DHT22;7953;54.302;10.128;2022-09-24T14:32:20;15.10;99.90
15707;DHT22;7953;54.302;10.128;2022-09-24T14:34:50;15.10;99.90
15707;DHT22;7953;54.302;10.128;2022-09-24T14:37:21;15.00;99.90
15707;DHT22;7953;54.302;10.128;2022-09-24T14:39:57;14.90;99.90
15707;DHT22;7953;54.302;10.128;2022-09-24T14:42:30;14.90;99.90
15707;DHT22;7953;54.302;10.128;2022-09-24T14:44:59;14.90;99.90
15707;DHT22;7953;54.302;10.128;2022-09-24T14:47:31;14.80;99.90
15707;DHT22;7953;54.302;10.128;2022-09-24T14:49:59;14.80;99.90
15707;DHT22;7953;54.302;10.128;2022-09-24T14:52:30;14.70;99.90
15707;DHT22;7953;54.302;10.128;2022-09-24T14:55:18;14.70;99.90
15707;DHT22;7953;54.302;10.128;2022-09-24T14:57:47;14.60;99.90
15707;DHT22;7953;54.302;10.128;2022-09-24T15:00:23;14.60;99.90
15707;DHT22;7953;54.302;10.128;2022-09-24T15:03:00;14.50;99.90
15707;DHT22;7953;54.302;10.128;2022-09-24T15:05:29;14.50;99.90
15707;DHT22;7953;54.302;10.128;2022-09-24T15:08:16;14.50;99.90
15707;DHT22;7953;54.302;10.128;2022-09-24T15:10:51;14.50;99.90
15707;DHT22;7953;54.302;10.128;2022-09-24T15:13:22;14.50;99.90
15707;DHT22;7953;54.302;10.128;2022-09-24T15:16:01;14.40;99.90
15707;DHT22;7953;54.302;10.128;2022-09-24T15:18:30;14.50;99.90
15707;DHT22;7953;54.302;10.128;2022-09-24T15:23:58;14.50;99.90
15707;DHT22;7953;54.302;10.128;2022-09-24T15:26:30;14.40;99.90
15707;DHT22;7953;54.302;10.128;2022-09-24T15:28:57;14.50;99.90
15707;DHT22;7953;54.302;10.128;2022-09-24T15:31:24;14.50;99.90
15707;DHT22;7953;54.302;10.128;2022-09-24T15:33:52;14.40;99.90
15707;DHT22;7953;54.302;10.128;2022-09-24T15:36:21;14.40;99.90
15707;DHT22;7953;54.302;10.128;2022-09-24T15:38:48;14.50;99.90
15707;DHT22;7953;54.302;10.128;2022-09-24T15:41:17;14.40;99.90
15707;DHT22;7953;54.302;10.128;2022-09-24T15:43:44;14.40;99.90
15707;DHT22;7953;54.302;10.128;2022-09-24T15:46:11;14.40;99.90
15707;DHT22;7953;54.302;10.128;2022-09-24T15:48:38;14.50;99.90
15707;DHT22;7953;54.302;10.128;2022-09-24T15:51:09;14.40;99.90
15707;DHT22;7953;54.302;10.128;2022-09-24T15:53:36;14.50;99.90
15707;DHT22;7953;54.302;10.128;2022-09-24T15:56:03;14.40;99.90
15707;DHT22;7953;54.302;10.128;2022-09-24T15:58:30;14.40;99.90
15707;DHT22;7953;54.302;10.128;2022-09-24T16:00:57;14.40;99.90
15707;DHT22;7953;54.302;10.128;2022-09-24T16:03:26;14.40;99.90
15707;DHT22;7953;54.302;10.128;2022-09-24T16:05:53;14.40;99.90
15707;DHT22;7953;54.302;10.128;2022-09-24T16:08:22;14.50;99.90
15707;DHT22;7953;54.302;10.128;2022-09-24T16:10:49;14.40;99.90
15707;DHT22;7953;54.302;10.128;2022-09-24T16:13:17;14.50;99.90